EDBL weather

Laucha Airport
Laucha an der Unstrut, Saxony-Anhalt, Germany

Public forecast

Using degrees Celsius for public forecast. Weather courtesy of forecast.io.

METAR (pilot weather report)

Closest report is Leipzig/Halle Airport, 23.0 nm (42.6 km) ENE. Retrieved 2019/09/19 15:20 UTC (16 minutes ago):

EDDP 191520Z 30011KT CAVOK 15/03 Q1028 NOSIG

TAF (pilot weather forecast)

Closest forecast is Leipzig/Halle Airport, 23.0 nm (42.6 km) ENE. Retrieved 2019/09/19 12:27 UTC (3 hours ago):

TAF EDDP 191100Z 1912/2012 32008KT CAVOK BECMG 1916/1918 26005KT